sensor_id;sensor_type;location;lat;lon;timestamp;pressure;altitude;pressure_sealevel;temperature;humidity
42519;BME280;28147;47.520;18.920;2023-02-21T00:01:54;98365.09;;;9.97;57.96
42519;BME280;28147;47.520;18.920;2023-02-21T00:05:45;98354.56;;;9.90;57.51
42519;BME280;28147;47.520;18.920;2023-02-21T00:08:29;98359.41;;;10.17;56.82
42519;BME280;28147;47.520;18.920;2023-02-21T00:13:20;98350.63;;;10.05;56.61
42519;BME280;28147;47.520;18.920;2023-02-21T00:16:04;98349.81;;;10.16;56.32
42519;BME280;28147;47.520;18.920;2023-02-21T00:21:36;98344.25;;;10.17;55.79
42519;BME280;28147;47.520;18.920;2023-02-21T00:24:17;98343.00;;;10.20;55.14
42519;BME280;28147;47.520;18.920;2023-02-21T00:30:26;98339.63;;;10.24;54.09
42519;BME280;28147;47.520;18.920;2023-02-21T00:33:10;98347.75;;;10.30;54.08
42519;BME280;28147;47.520;18.920;2023-02-21T00:35:54;98346.38;;;10.39;54.28
42519;BME280;28147;47.520;18.920;2023-02-21T00:38:37;98351.56;;;10.45;54.25
42519;BME280;28147;47.520;18.920;2023-02-21T00:43:52;98335.38;;;10.35;54.62
42519;BME280;28147;47.520;18.920;2023-02-21T00:46:36;98340.69;;;10.23;54.88
42519;BME280;28147;47.520;18.920;2023-02-21T00:49:20;98334.78;;;10.33;54.76
42519;BME280;28147;47.520;18.920;2023-02-21T00:52:10;98330.41;;;10.15;55.50
42519;BME280;28147;47.520;18.920;2023-02-21T00:54:53;98327.03;;;10.20;55.46
42519;BME280;28147;47.520;18.920;2023-02-21T00:57:37;98332.34;;;9.85;56.43
42519;BME280;28147;47.520;18.920;2023-02-21T01:00:22;98331.66;;;10.01;56.07
42519;BME280;28147;47.520;18.920;2023-02-21T01:03:07;98323.34;;;9.86;56.86
42519;BME280;28147;47.520;18.920;2023-02-21T01:05:52;98319.06;;;10.08;56.30
42519;BME280;28147;47.520;18.920;2023-02-21T01:08:40;98324.50;;;10.02;56.07
42519;BME280;28147;47.520;18.920;2023-02-21T01:11:25;98324.03;;;10.05;55.83
42519;BME280;28147;47.520;18.920;2023-02-21T01:14:08;98324.03;;;9.93;56.03
42519;BME280;28147;47.520;18.920;2023-02-21T01:16:52;98321.72;;;10.08;55.53
42519;BME280;28147;47.520;18.920;2023-02-21T01:19:28;98327.06;;;10.32;54.66
42519;BME280;28147;47.520;18.920;2023-02-21T01:22:11;98326.81;;;10.33;54.69
42519;BME280;28147;47.520;18.920;2023-02-21T01:24:49;98335.72;;;10.39;53.97
42519;BME280;28147;47.520;18.920;2023-02-21T01:29:02;98320.56;;;10.39;53.59
42519;BME280;28147;47.520;18.920;2023-02-21T01:31:44;98321.13;;;10.06;54.67
42519;BME280;28147;47.520;18.920;2023-02-21T01:34:20;98328.19;;;10.24;54.09
42519;BME280;28147;47.520;18.920;2023-02-21T01:36:53;98325.09;;;10.15;54.04
42519;BME280;28147;47.520;18.920;2023-02-21T01:39:32;98318.47;;;10.06;54.45
42519;BME280;28147;47.520;18.920;2023-02-21T01:46:46;98318.13;;;10.26;53.53
42519;BME280;28147;47.520;18.920;2023-02-21T01:49:27;98325.53;;;10.12;53.42
42519;BME280;28147;47.520;18.920;2023-02-21T01:52:07;98327.84;;;10.20;53.42
42519;BME280;28147;47.520;18.920;2023-02-21T01:54:53;98319.53;;;10.29;53.66
42519;BME280;28147;47.520;18.920;2023-02-21T01:57:35;98311.81;;;10.27;53.22
42519;BME280;28147;47.520;18.920;2023-02-21T02:00:16;98306.34;;;10.45;53.15
42519;BME280;28147;47.520;18.920;2023-02-21T02:04:45;98304.84;;;10.26;53.16
42519;BME280;28147;47.520;18.920;2023-02-21T02:07:27;98307.13;;;10.46;52.80
42519;BME280;28147;47.520;18.920;2023-02-21T02:10:07;98307.97;;;10.35;53.49
42519;BME280;28147;47.520;18.920;2023-02-21T02:59:53;98289.47;;;9.81;55.79
42519;BME280;28147;47.520;18.920;2023-02-21T03:18:29;98291.09;;;9.82;56.30
42519;BME280;28147;47.520;18.920;2023-02-21T03:22:58;98288.41;;;10.06;56.08
42519;BME280;28147;47.520;18.920;2023-02-21T03:27:48;98292.13;;;10.05;56.09
42519;BME280;28147;47.520;18.920;2023-02-21T03:38:20;98286.09;;;10.09;55.69
42519;BME280;28147;47.520;18.920;2023-02-21T03:43:55;98288.16;;;10.19;55.39
42519;BME280;28147;47.520;18.920;2023-02-21T03:47:46;98283.09;;;10.06;55.51
42519;BME280;28147;47.520;18.920;2023-02-21T03:52:57;98277.44;;;10.02;55.64
42519;BME280;28147;47.520;18.920;2023-02-21T03:55:23;98275.91;;;10.18;55.22
42519;BME280;28147;47.520;18.920;2023-02-21T04:01:49;98270.13;;;10.21;55.11
42519;BME280;28147;47.520;18.920;2023-02-21T04:05:18;98277.31;;;10.09;55.48
42519;BME280;28147;47.520;18.920;2023-02-21T04:07:44;98284.34;;;10.15;55.36
42519;BME280;28147;47.520;18.920;2023-02-21T04:13:56;98274.88;;;10.07;55.53
42519;BME280;28147;47.520;18.920;2023-02-21T04:16:21;98266.69;;;10.09;55.45
42519;BME280;28147;47.520;18.920;2023-02-21T04:18:47;98272.69;;;10.16;55.19
42519;BME280;28147;47.520;18.920;2023-02-21T04:21:16;98284.59;;;10.25;55.11
42519;BME280;28147;47.520;18.920;2023-02-21T04:25:33;98266.56;;;10.15;55.24
42519;BME280;28147;47.520;18.920;2023-02-21T04:27:58;98256.59;;;10.11;55.46
42519;BME280;28147;47.520;18.920;2023-02-21T04:30:24;98260.06;;;10.23;55.03
42519;BME280;28147;47.520;18.920;2023-02-21T04:35:59;98241.69;;;10.10;54.89
42519;BME280;28147;47.520;18.920;2023-02-21T04:47:51;98254.44;;;10.08;55.38
42519;BME280;28147;47.520;18.920;2023-02-21T04:50:45;98255.44;;;10.18;54.71
42519;BME280;28147;47.520;18.920;2023-02-21T04:59:59;98269.56;;;10.07;55.28
42519;BME280;28147;47.520;18.920;2023-02-21T05:04:21;98257.44;;;9.99;55.66
42519;BME280;28147;47.520;18.920;2023-02-21T05:06:46;98253.75;;;10.01;55.59
42519;BME280;28147;47.520;18.920;2023-02-21T05:09:12;98255.09;;;10.03;55.67
42519;BME280;28147;47.520;18.920;2023-02-21T05:14:19;98252.22;;;10.16;55.23
42519;BME280;28147;47.520;18.920;2023-02-21T05:19:20;98246.09;;;10.16;55.25
42519;BME280;28147;47.520;18.920;2023-02-21T05:23:07;98244.72;;;9.90;55.67
42519;BME280;28147;47.520;18.920;2023-02-21T05:25:33;98249.44;;;10.11;55.18
42519;BME280;28147;47.520;18.920;2023-02-21T05:27:58;98242.16;;;10.07;55.38
42519;BME280;28147;47.520;18.920;2023-02-21T05:30:24;98238.56;;;10.13;55.30
42519;BME280;28147;47.520;18.920;2023-02-21T05:35:22;98219.19;;;10.01;55.13
42519;BME280;28147;47.520;18.920;2023-02-21T05:41:10;98211.88;;;9.96;55.45
42519;BME280;28147;47.520;18.920;2023-02-21T05:43:35;98211.66;;;9.97;55.55
42519;BME280;28147;47.520;18.920;2023-02-21T05:46:01;98205.59;;;10.14;55.01
42519;BME280;28147;47.520;18.920;2023-02-21T05:48:26;98200.06;;;10.04;55.64
42519;BME280;28147;47.520;18.920;2023-02-21T05:50:53;98203.41;;;10.11;55.30
42519;BME280;28147;47.520;18.920;2023-02-21T05:53:19;98208.97;;;10.09;55.51
42519;BME280;28147;47.520;18.920;2023-02-21T05:55:44;98206.22;;;10.04;55.60
42519;BME280;28147;47.520;18.920;2023-02-21T05:58:09;98207.03;;;10.05;55.67
42519;BME280;28147;47.520;18.920;2023-02-21T06:00:35;98202.38;;;10.12;55.77
42519;BME280;28147;47.520;18.920;2023-02-21T06:03:00;98218.81;;;10.09;55.86
42519;BME280;28147;47.520;18.920;2023-02-21T06:07:12;98222.03;;;10.11;55.82
42519;BME280;28147;47.520;18.920;2023-02-21T06:09:37;98228.66;;;10.08;55.70
42519;BME280;28147;47.520;18.920;2023-02-21T06:12:02;98236.50;;;10.27;55.30
42519;BME280;28147;47.520;18.920;2023-02-21T06:14:28;98247.53;;;10.47;55.00
42519;BME280;28147;47.520;18.920;2023-02-21T06:16:53;98252.03;;;10.58;54.88
42519;BME280;28147;47.520;18.920;2023-02-21T06:19:19;98254.69;;;10.58;54.72
42519;BME280;28147;47.520;18.920;2023-02-21T06:21:45;98253.03;;;10.69;54.52
42519;BME280;28147;47.520;18.920;2023-02-21T06:24:11;98261.38;;;10.89;54.16
42519;BME280;28147;47.520;18.920;2023-02-21T06:26:37;98263.16;;;10.84;54.34
42519;BME280;28147;47.520;18.920;2023-02-21T06:29:05;98267.56;;;10.78;54.48
42519;BME280;28147;47.520;18.920;2023-02-21T06:31:31;98272.97;;;10.83;54.72
42519;BME280;28147;47.520;18.920;2023-02-21T06:33:57;98266.03;;;10.82;54.95
42519;BME280;28147;47.520;18.920;2023-02-21T06:37:17;98264.91;;;11.07;54.40
42519;BME280;28147;47.520;18.920;2023-02-21T06:39:43;98253.47;;;10.94;54.54
42519;BME280;28147;47.520;18.920;2023-02-21T06:42:12;98284.75;;;10.99;54.64
42519;BME280;28147;47.520;18.920;2023-02-21T06:44:38;98286.81;;;10.97;54.80
42519;BME280;28147;47.520;18.920;2023-02-21T06:47:04;98281.09;;;11.05;55.11
42519;BME280;28147;47.520;18.920;2023-02-21T06:49:29;98282.56;;;11.13;54.91
42519;BME280;28147;47.520;18.920;2023-02-21T06:51:54;98277.41;;;11.06;54.72
42519;BME280;28147;47.520;18.920;2023-02-21T06:54:20;98286.28;;;11.12;54.79
42519;BME280;28147;47.520;18.920;2023-02-21T06:56:46;98282.28;;;11.26;53.90
42519;BME280;28147;47.520;18.920;2023-02-21T06:59:11;98283.47;;;11.18;53.50
42519;BME280;28147;47.520;18.920;2023-02-21T07:01:37;98281.47;;;11.42;52.74
42519;BME280;28147;47.520;18.920;2023-02-21T07:04:02;98283.09;;;11.60;51.83
42519;BME280;28147;47.520;18.920;2023-02-21T07:06:27;98292.72;;;11.78;51.74
42519;BME280;28147;47.520;18.920;2023-02-21T07:08:53;98281.31;;;11.66;51.40
42519;BME280;28147;47.520;18.920;2023-02-21T07:11:18;98280.28;;;11.67;51.57
42519;BME280;28147;47.520;18.920;2023-02-21T07:13:51;98280.28;;;11.84;50.84
42519;BME280;28147;47.520;18.920;2023-02-21T07:16:18;98298.22;;;11.88;50.69
42519;BME280;28147;47.520;18.920;2023-02-21T07:18:45;98288.94;;;11.91;50.34
42519;BME280;28147;47.520;18.920;2023-02-21T07:21:11;98292.44;;;12.13;50.30
42519;BME280;28147;47.520;18.920;2023-02-21T07:23:36;98315.56;;;12.25;50.08
42519;BME280;28147;47.520;18.920;2023-02-21T07:26:02;98290.97;;;12.23;50.11
42519;BME280;28147;47.520;18.920;2023-02-21T07:28:27;98288.25;;;12.01;50.80
42519;BME280;28147;47.520;18.920;2023-02-21T07:30:53;98306.47;;;12.43;50.03
42519;BME280;28147;47.520;18.920;2023-02-21T07:33:19;98301.13;;;12.43;50.19
42519;BME280;28147;47.520;18.920;2023-02-21T07:35:44;98303.03;;;12.47;49.99
42519;BME280;28147;47.520;18.920;2023-02-21T07:38:19;98308.03;;;12.87;49.45
42519;BME280;28147;47.520;18.920;2023-02-21T07:40:44;98300.44;;;13.01;48.79
42519;BME280;28147;47.520;18.920;2023-02-21T07:43:10;98306.59;;;13.02;48.66
42519;BME280;28147;47.520;18.920;2023-02-21T07:45:35;98301.00;;;13.03;48.68
42519;BME280;28147;47.520;18.920;2023-02-21T07:48:01;98296.50;;;13.09;48.23
42519;BME280;28147;47.520;18.920;2023-02-21T07:50:26;98304.00;;;13.34;47.95
42519;BME280;28147;47.520;18.920;2023-02-21T07:52:51;98299.59;;;13.50;47.89
42519;BME280;28147;47.520;18.920;2023-02-21T07:55:17;98296.94;;;13.87;47.42
42519;BME280;28147;47.520;18.920;2023-02-21T07:57:43;98299.59;;;13.50;47.71
42519;BME280;28147;47.520;18.920;2023-02-21T08:00:09;98304.19;;;13.86;47.57
42519;BME280;28147;47.520;18.920;2023-02-21T08:02:35;98303.16;;;14.40;46.26
42519;BME280;28147;47.520;18.920;2023-02-21T08:05:00;98294.19;;;14.14;46.39
42519;BME280;28147;47.520;18.920;2023-02-21T08:07:26;98286.53;;;14.43;46.21
42519;BME280;28147;47.520;18.920;2023-02-21T08:09:51;98289.50;;;14.42;45.95
42519;BME280;28147;47.520;18.920;2023-02-21T08:12:17;98291.28;;;14.83;44.96
42519;BME280;28147;47.520;18.920;2023-02-21T08:14:42;98283.03;;;15.11;44.58
42519;BME280;28147;47.520;18.920;2023-02-21T08:17:07;98284.56;;;14.81;45.05
42519;BME280;28147;47.520;18.920;2023-02-21T08:19:33;98290.78;;;14.92;44.79
42519;BME280;28147;47.520;18.920;2023-02-21T08:21:58;98278.19;;;15.07;44.70
42519;BME280;28147;47.520;18.920;2023-02-21T08:24:24;98302.09;;;15.04;45.34
42519;BME280;28147;47.520;18.920;2023-02-21T08:26:49;98297.28;;;15.26;44.24
42519;BME280;28147;47.520;18.920;2023-02-21T08:29:15;98298.63;;;15.44;44.23
42519;BME280;28147;47.520;18.920;2023-02-21T08:31:42;98305.88;;;15.39;44.55
42519;BME280;28147;47.520;18.920;2023-02-21T08:34:09;98307.72;;;15.13;44.76
42519;BME280;28147;47.520;18.920;2023-02-21T08:36:37;98304.31;;;15.73;43.81
42519;BME280;28147;47.520;18.920;2023-02-21T08:39:04;98303.78;;;15.71;43.93
42519;BME280;28147;47.520;18.920;2023-02-21T08:41:43;98311.03;;;15.81;43.93
42519;BME280;28147;47.520;18.920;2023-02-21T08:44:10;98310.69;;;16.23;42.98
42519;BME280;28147;47.520;18.920;2023-02-21T08:46:36;98298.59;;;16.21;43.10
42519;BME280;28147;47.520;18.920;2023-02-21T08:49:03;98302.47;;;16.69;42.41
42519;BME280;28147;47.520;18.920;2023-02-21T08:51:31;98294.13;;;16.81;42.49
42519;BME280;28147;47.520;18.920;2023-02-21T08:53:56;98304.22;;;16.29;42.75
42519;BME280;28147;47.520;18.920;2023-02-21T08:56:23;98311.72;;;16.48;43.44
42519;BME280;28147;47.520;18.920;2023-02-21T08:58:48;98301.19;;;16.51;42.55
42519;BME280;28147;47.520;18.920;2023-02-21T09:01:14;98303.31;;;17.19;41.65
42519;BME280;28147;47.520;18.920;2023-02-21T09:03:40;98306.75;;;16.70;42.57
42519;BME280;28147;47.520;18.920;2023-02-21T09:06:06;98298.66;;;17.30;41.57
42519;BME280;28147;47.520;18.920;2023-02-21T09:08:31;98299.53;;;16.66;42.66
42519;BME280;28147;47.520;18.920;2023-02-21T09:10:57;98306.63;;;17.06;41.94
42519;BME280;28147;47.520;18.920;2023-02-21T09:13:26;98304.59;;;17.27;41.77
42519;BME280;28147;47.520;18.920;2023-02-21T09:15:52;98308.09;;;16.73;42.23
42519;BME280;28147;47.520;18.920;2023-02-21T09:18:17;98309.16;;;17.32;42.45
42519;BME280;28147;47.520;18.920;2023-02-21T09:20:42;98304.53;;;17.37;41.42
42519;BME280;28147;47.520;18.920;2023-02-21T09:23:10;98297.59;;;16.82;42.12
42519;BME280;28147;47.520;18.920;2023-02-21T09:25:35;98296.28;;;16.79;42.41
42519;BME280;28147;47.520;18.920;2023-02-21T09:28:01;98303.03;;;16.61;42.58
42519;BME280;28147;47.520;18.920;2023-02-21T09:30:27;98306.38;;;17.42;41.51
42519;BME280;28147;47.520;18.920;2023-02-21T09:32:54;98310.47;;;17.39;41.25
42519;BME280;28147;47.520;18.920;2023-02-21T09:35:20;98290.63;;;16.81;42.65
42519;BME280;28147;47.520;18.920;2023-02-21T09:37:46;98295.81;;;16.57;43.24
42519;BME280;28147;47.520;18.920;2023-02-21T09:42:51;98284.25;;;17.50;41.42
42519;BME280;28147;47.520;18.920;2023-02-21T09:45:18;98285.78;;;17.61;41.21
42519;BME280;28147;47.520;18.920;2023-02-21T09:47:48;98310.13;;;17.46;41.80
42519;BME280;28147;47.520;18.920;2023-02-21T09:50:18;98299.94;;;18.06;41.34
42519;BME280;28147;47.520;18.920;2023-02-21T09:52:45;98305.25;;;17.87;41.54
42519;BME280;28147;47.520;18.920;2023-02-21T09:55:30;98293.75;;;17.77;41.38
42519;BME280;28147;47.520;18.920;2023-02-21T09:57:59;98301.31;;;17.74;40.95
42519;BME280;28147;47.520;18.920;2023-02-21T10:00:33;98299.44;;;18.04;41.27
42519;BME280;28147;47.520;18.920;2023-02-21T10:08:31;98308.59;;;17.69;41.58
42519;BME280;28147;47.520;18.920;2023-02-21T10:13:53;98315.22;;;18.16;40.23
42519;BME280;28147;47.520;18.920;2023-02-21T10:16:35;98320.75;;;17.66;41.58
42519;BME280;28147;47.520;18.920;2023-02-21T10:21:40;98312.16;;;17.98;40.89
42519;BME280;28147;47.520;18.920;2023-02-21T10:24:15;98303.47;;;17.72;40.81
42519;BME280;28147;47.520;18.920;2023-02-21T10:26:47;98295.81;;;17.90;41.02
42519;BME280;28147;47.520;18.920;2023-02-21T10:29:22;98289.88;;;17.88;40.92
42519;BME280;28147;47.520;18.920;2023-02-21T10:31:53;98301.66;;;18.26;40.63
42519;BME280;28147;47.520;18.920;2023-02-21T10:34:26;98290.81;;;18.07;40.99
42519;BME280;28147;47.520;18.920;2023-02-21T10:36:54;98295.50;;;18.20;41.02
42519;BME280;28147;47.520;18.920;2023-02-21T10:39:27;98280.06;;;17.73;41.81
42519;BME280;28147;47.520;18.920;2023-02-21T10:41:55;98268.66;;;18.10;41.03
42519;BME280;28147;47.520;18.920;2023-02-21T10:44:26;98275.06;;;17.90;41.82
42519;BME280;28147;47.520;18.920;2023-02-21T10:49:39;98295.47;;;18.92;40.07
42519;BME280;28147;47.520;18.920;2023-02-21T10:52:12;98272.22;;;18.78;39.63
42519;BME280;28147;47.520;18.920;2023-02-21T10:54:39;98288.75;;;18.90;40.20
42519;BME280;28147;47.520;18.920;2023-02-21T10:57:09;98288.06;;;18.60;40.08
42519;BME280;28147;47.520;18.920;2023-02-21T10:59:39;98294.81;;;17.81;41.62
42519;BME280;28147;47.520;18.920;2023-02-21T11:02:32;98289.88;;;18.41;41.37
42519;BME280;28147;47.520;18.920;2023-02-21T11:05:18;98296.44;;;18.35;41.10
42519;BME280;28147;47.520;18.920;2023-02-21T11:08:33;98296.63;;;18.14;41.35
42519;BME280;28147;47.520;18.920;2023-02-21T11:10:59;98296.94;;;18.37;41.49
42519;BME280;28147;47.520;18.920;2023-02-21T11:13:25;98288.06;;;18.36;40.46
42519;BME280;28147;47.520;18.920;2023-02-21T11:16:10;98305.19;;;18.21;41.38
42519;BME280;28147;47.520;18.920;2023-02-21T11:18:36;98298.25;;;17.86;41.74
42519;BME280;28147;47.520;18.920;2023-02-21T11:21:16;98289.75;;;18.75;41.22
42519;BME280;28147;47.520;18.920;2023-02-21T11:23:51;98287.94;;;18.22;40.49
42519;BME280;28147;47.520;18.920;2023-02-21T11:26:23;98302.84;;;18.39;40.97
42519;BME280;28147;47.520;18.920;2023-02-21T11:28:49;98298.44;;;18.24;41.27
42519;BME280;28147;47.520;18.920;2023-02-21T11:33:58;98301.91;;;18.48;40.80
42519;BME280;28147;47.520;18.920;2023-02-21T11:36:30;98296.56;;;18.67;40.78
42519;BME280;28147;47.520;18.920;2023-02-21T11:39:06;98308.63;;;18.51;41.25
42519;BME280;28147;47.520;18.920;2023-02-21T11:41:56;98297.06;;;18.27;42.44
42519;BME280;28147;47.520;18.920;2023-02-21T11:47:00;98301.25;;;18.38;42.17
42519;BME280;28147;47.520;18.920;2023-02-21T11:49:49;98309.38;;;18.33;42.15
42519;BME280;28147;47.520;18.920;2023-02-21T11:55:18;98296.59;;;18.43;42.13
42519;BME280;28147;47.520;18.920;2023-02-21T11:57:55;98316.63;;;18.61;42.45
42519;BME280;28147;47.520;18.920;2023-02-21T12:00:33;98311.88;;;18.53;42.70
42519;BME280;28147;47.520;18.920;2023-02-21T12:03:04;98314.50;;;18.05;42.95
42519;BME280;28147;47.520;18.920;2023-02-21T12:38:36;98325.50;;;16.96;45.17
42519;BME280;28147;47.520;18.920;2023-02-21T12:51:34;98287.84;;;16.31;46.90
42519;BME280;28147;47.520;18.920;2023-02-21T12:54:05;98301.28;;;16.21;47.23
42519;BME280;28147;47.520;18.920;2023-02-21T12:56:37;98301.06;;;15.97;47.95
42519;BME280;28147;47.520;18.920;2023-02-21T13:01:45;98289.75;;;16.25;46.62
42519;BME280;28147;47.520;18.920;2023-02-21T13:04:27;98298.28;;;16.38;46.30
42519;BME280;28147;47.520;18.920;2023-02-21T13:07:02;98294.75;;;16.52;46.31
42519;BME280;28147;47.520;18.920;2023-02-21T13:09:58;98291.75;;;16.74;46.43
42519;BME280;28147;47.520;18.920;2023-02-21T13:12:29;98286.88;;;16.71;46.58
42519;BME280;28147;47.520;18.920;2023-02-21T13:15:00;98294.44;;;16.59;46.84
42519;BME280;28147;47.520;18.920;2023-02-21T13:17:27;98297.97;;;16.60;47.18
42519;BME280;28147;47.520;18.920;2023-02-21T13:20:06;98288.72;;;16.81;46.33
42519;BME280;28147;47.520;18.920;2023-02-21T13:26:37;98285.97;;;16.26;47.97
42519;BME280;28147;47.520;18.920;2023-02-21T13:28:58;98288.75;;;15.80;48.94
42519;BME280;28147;47.520;18.920;2023-02-21T13:31:27;98283.38;;;15.80;49.22
42519;BME280;28147;47.520;18.920;2023-02-21T13:34:00;98282.84;;;15.78;48.78
42519;BME280;28147;47.520;18.920;2023-02-21T13:41:42;98282.84;;;15.73;48.69
42519;BME280;28147;47.520;18.920;2023-02-21T13:57:42;98279.59;;;15.51;49.24
42519;BME280;28147;47.520;18.920;2023-02-21T14:03:02;98267.78;;;15.42;49.40
42519;BME280;28147;47.520;18.920;2023-02-21T14:11:24;98272.63;;;15.24;49.40
42519;BME280;28147;47.520;18.920;2023-02-21T14:14:01;98277.16;;;15.19;49.38
42519;BME280;28147;47.520;18.920;2023-02-21T14:16:45;98268.59;;;15.17;49.52
42519;BME280;28147;47.520;18.920;2023-02-21T14:21:45;98282.00;;;15.17;49.37
42519;BME280;28147;47.520;18.920;2023-02-21T14:24:18;98292.19;;;15.25;49.46
42519;BME280;28147;47.520;18.920;2023-02-21T14:36:57;98287.03;;;14.98;50.28
42519;BME280;28147;47.520;18.920;2023-02-21T14:39:30;98291.75;;;14.60;50.70
42519;BME280;28147;47.520;18.920;2023-02-21T14:42:15;98284.56;;;14.76;50.70
42519;BME280;28147;47.520;18.920;2023-02-21T14:47:56;98282.44;;;14.78;50.68
42519;BME280;28147;47.520;18.920;2023-02-21T14:51:01;98286.81;;;15.04;50.87
42519;BME280;28147;47.520;18.920;2023-02-21T15:07:11;98297.72;;;14.88;50.36
42519;BME280;28147;47.520;18.920;2023-02-21T15:09:40;98299.03;;;14.75;50.57
42519;BME280;28147;47.520;18.920;2023-02-21T15:12:12;98303.13;;;15.03;50.30
42519;BME280;28147;47.520;18.920;2023-02-21T15:14:46;98297.22;;;14.91;50.62
42519;BME280;28147;47.520;18.920;2023-02-21T15:17:16;98303.16;;;15.13;49.93
42519;BME280;28147;47.520;18.920;2023-02-21T15:19:42;98304.16;;;14.81;50.03
42519;BME280;28147;47.520;18.920;2023-02-21T15:22:26;98302.56;;;14.91;50.02
42519;BME280;28147;47.520;18.920;2023-02-21T15:27:32;98306.75;;;14.61;50.79
42519;BME280;28147;47.520;18.920;2023-02-21T15:30:14;98300.16;;;14.99;49.83
42519;BME280;28147;47.520;18.920;2023-02-21T15:32:40;98290.25;;;14.90;50.01
42519;BME280;28147;47.520;18.920;2023-02-21T15:35:10;98302.59;;;15.06;49.51
42519;BME280;28147;47.520;18.920;2023-02-21T15:37:38;98304.16;;;14.81;50.29
42519;BME280;28147;47.520;18.920;2023-02-21T15:40:14;98308.50;;;14.98;49.80
42519;BME280;28147;47.520;18.920;2023-02-21T15:42:41;98306.00;;;14.81;50.09
42519;BME280;28147;47.520;18.920;2023-02-21T15:45:21;98300.63;;;14.71;50.49
42519;BME280;28147;47.520;18.920;2023-02-21T15:47:48;98312.59;;;14.53;50.56
42519;BME280;28147;47.520;18.920;2023-02-21T15:50:34;98314.34;;;14.84;50.19
42519;BME280;28147;47.520;18.920;2023-02-21T15:53:16;98310.03;;;14.78;49.97
42519;BME280;28147;47.520;18.920;2023-02-21T15:55:43;98313.81;;;14.88;49.85
42519;BME280;28147;47.520;18.920;2023-02-21T15:58:24;98314.28;;;14.69;50.40
42519;BME280;28147;47.520;18.920;2023-02-21T16:01:05;98321.56;;;14.79;50.32
42519;BME280;28147;47.520;18.920;2023-02-21T16:03:40;98321.03;;;14.82;49.83
42519;BME280;28147;47.520;18.920;2023-02-21T16:06:23;98318.13;;;14.94;49.96
42519;BME280;28147;47.520;18.920;2023-02-21T16:11:49;98325.28;;;14.73;49.88
42519;BME280;28147;47.520;18.920;2023-02-21T16:19:40;98328.75;;;14.63;50.29
42519;BME280;28147;47.520;18.920;2023-02-21T16:24:47;98319.66;;;14.27;50.71
42519;BME280;28147;47.520;18.920;2023-02-21T16:27:16;98322.72;;;13.98;51.74
42519;BME280;28147;47.520;18.920;2023-02-21T16:29:42;98331.34;;;14.10;51.56
42519;BME280;28147;47.520;18.920;2023-02-21T16:32:17;98339.25;;;14.32;51.10
42519;BME280;28147;47.520;18.920;2023-02-21T16:34:43;98337.53;;;14.53;50.58
42519;BME280;28147;47.520;18.920;2023-02-21T16:37:11;98347.44;;;14.53;50.84
42519;BME280;28147;47.520;18.920;2023-02-21T16:39:38;98342.88;;;14.53;50.67
42519;BME280;28147;47.520;18.920;2023-02-21T16:42:05;98344.03;;;14.25;51.44
42519;BME280;28147;47.520;18.920;2023-02-21T16:44:30;98351.09;;;14.47;50.75
42519;BME280;28147;47.520;18.920;2023-02-21T16:46:56;98351.72;;;14.54;50.49
42519;BME280;28147;47.520;18.920;2023-02-21T16:49:21;98334.56;;;14.50;50.79
42519;BME280;28147;47.520;18.920;2023-02-21T16:51:47;98350.81;;;14.43;50.96
42519;BME280;28147;47.520;18.920;2023-02-21T16:54:12;98353.91;;;14.62;50.64
42519;BME280;28147;47.520;18.920;2023-02-21T16:56:41;98352.28;;;14.56;50.61
42519;BME280;28147;47.520;18.920;2023-02-21T16:59:12;98361.41;;;14.60;50.88
42519;BME280;28147;47.520;18.920;2023-02-21T17:01:39;98346.31;;;14.49;50.96
42519;BME280;28147;47.520;18.920;2023-02-21T17:04:08;98357.00;;;14.44;50.92
42519;BME280;28147;47.520;18.920;2023-02-21T17:06:38;98365.28;;;14.42;51.38
42519;BME280;28147;47.520;18.920;2023-02-21T17:09:03;98364.19;;;14.38;51.00
42519;BME280;28147;47.520;18.920;2023-02-21T17:11:29;98357.00;;;14.44;51.52
42519;BME280;28147;47.520;18.920;2023-02-21T17:13:54;98366.34;;;14.36;51.47
42519;BME280;28147;47.520;18.920;2023-02-21T17:16:20;98364.97;;;14.33;51.67
42519;BME280;28147;47.520;18.920;2023-02-21T17:18:45;98372.63;;;14.57;51.36
42519;BME280;28147;47.520;18.920;2023-02-21T17:21:11;98370.13;;;14.45;51.29
42519;BME280;28147;47.520;18.920;2023-02-21T17:23:37;98368.22;;;14.41;51.59
42519;BME280;28147;47.520;18.920;2023-02-21T17:26:03;98369.84;;;14.47;51.23
42519;BME280;28147;47.520;18.920;2023-02-21T17:28:28;98358.44;;;14.19;51.85
42519;BME280;28147;47.520;18.920;2023-02-21T17:30:54;98363.09;;;14.34;51.46
42519;BME280;28147;47.520;18.920;2023-02-21T17:33:20;98372.69;;;14.25;51.96
42519;BME280;28147;47.520;18.920;2023-02-21T17:35:46;98367.03;;;14.21;52.00
42519;BME280;28147;47.520;18.920;2023-02-21T17:38:12;98369.19;;;14.24;51.82
42519;BME280;28147;47.520;18.920;2023-02-21T17:40:37;98370.16;;;14.08;52.19
42519;BME280;28147;47.520;18.920;2023-02-21T17:43:03;98368.72;;;14.32;51.47
42519;BME280;28147;47.520;18.920;2023-02-21T17:45:33;98373.59;;;14.03;52.22
42519;BME280;28147;47.520;18.920;2023-02-21T17:48:00;98376.09;;;14.15;51.91
42519;BME280;28147;47.520;18.920;2023-02-21T17:50:28;98372.53;;;14.04;52.84
42519;BME280;28147;47.520;18.920;2023-02-21T17:52:53;98380.75;;;13.93;52.99
42519;BME280;28147;47.520;18.920;2023-02-21T17:55:21;98376.06;;;14.10;52.88
42519;BME280;28147;47.520;18.920;2023-02-21T17:57:49;98370.50;;;13.84;52.98
42519;BME280;28147;47.520;18.920;2023-02-21T18:00:26;98369.31;;;13.70;53.43
42519;BME280;28147;47.520;18.920;2023-02-21T18:02:53;98374.88;;;13.96;53.00
42519;BME280;28147;47.520;18.920;2023-02-21T18:05:19;98368.34;;;14.19;52.09